Weather at Pumalín Airport

Public forecast

Using degrees Celsius for public forecast. Weather courtesy of forecast.io.

Closest aviation weather report (METAR) to Pumalín Airport

Closest report is Chaitén Airport, 15.4 nm (28.5 km) SSE. Retrieved 2021/08/02 12:00 UTC (12 minutes ago):

SCTN 021200Z AUTO 06006KT 9999 BKN021 OVC037 09/07 Q1023

Closest aviation forecast (TAF) to Pumalín Airport

Forecast is more than 12 hours old.

Closest forecast is Chaitén Airport, 15.4 nm (28.5 km) SSE. Retrieved 2018/09/16 12:33 UTC (3 years ago):

TAF SPJL 161124Z 1612/1712 VRB04KT 9999 FEW020LVA0551 161131 GG KWBCYMYX MPZZMAMX 161130 SCSCYZYX SPCH03 SCTN 161130 SPECI SCTN 161130Z 36020G31KT +RA SCT013 OVC017 11/09 Q1009